Time;durP1;ratioP1;P1;durP2;ratioP2;P2;SDS_P1;SDS_P2;PMS_P1;PMS_P2;Temp;Humidity;BMP_temperature;BMP_pressure;BME280_temperature;BME280_humidity;BME280_pressure;Samples;Min_cycle;Max_cycle;Signal;HPM_P1;HPM_P2
2022/04/02 00:01:23;;;;;;;14.48;3.80;;;1.90;99.90;;;;;;6211878;23;20430;-78
2022/04/02 00:03:48;;;;;;;3.58;2.00;;;1.90;99.90;;;;;;6211964;23;20020;-79
2022/04/02 00:06:14;;;;;;;5.43;2.58;;;1.90;99.90;;;;;;6211705;23;20465;-79
2022/04/02 00:08:39;;;;;;;4.13;2.15;;;1.90;99.90;;;;;;6211818;23;20107;-79
2022/04/02 00:11:05;;;;;;;5.15;2.25;;;1.90;99.90;;;;;;6211482;23;20036;-79
2022/04/02 00:13:31;;;;;;;3.00;1.70;;;1.90;99.90;;;;;;6211962;23;20013;-79
2022/04/02 00:15:58;;;;;;;3.25;1.50;;;1.90;99.90;;;;;;6212145;23;20027;-79
2022/04/02 00:18:24;;;;;;;3.50;1.60;;;1.90;99.90;;;;;;6213505;23;20017;-79
2022/04/02 00:20:50;;;;;;;3.72;1.33;;;1.80;99.90;;;;;;6211736;23;20020;-80
2022/04/02 00:25:59;;;;;;;3.30;1.77;;;1.70;99.90;;;;;;6212005;23;20151;-79
2022/04/02 00:28:25;;;;;;;3.17;1.80;;;1.70;99.90;;;;;;6213731;23;20051;-79
2022/04/02 00:30:51;;;;;;;3.22;1.63;;;1.70;99.90;;;;;;6211864;23;20055;-79
2022/04/02 00:33:17;;;;;;;3.15;1.50;;;1.70;99.90;;;;;;6212074;23;20090;-79
2022/04/02 00:35:42;;;;;;;5.43;1.75;;;1.60;99.90;;;;;;6218645;23;20016;-79
2022/04/02 00:38:08;;;;;;;4.18;1.83;;;1.60;99.90;;;;;;6229161;23;20023;-79
2022/04/02 00:40:34;;;;;;;2.95;1.70;;;1.60;99.90;;;;;;6218794;23;20454;-79
2022/04/02 00:43:00;;;;;;;3.85;1.45;;;1.60;99.90;;;;;;6214382;23;20059;-79
2022/04/02 00:45:25;;;;;;;3.83;1.48;;;1.50;99.90;;;;;;6214430;23;20016;-79
2022/04/02 00:47:51;;;;;;;4.20;1.73;;;1.50;99.90;;;;;;6214354;23;20012;-79
2022/04/02 00:50:17;;;;;;;2.88;1.65;;;1.50;99.90;;;;;;6214462;23;20017;-79
2022/04/02 00:52:43;;;;;;;3.47;1.25;;;1.50;99.90;;;;;;6214683;23;20009;-79
2022/04/02 00:55:09;;;;;;;2.35;1.50;;;1.50;99.90;;;;;;6214521;23;20016;-80
2022/04/02 00:57:35;;;;;;;2.10;1.45;;;1.40;99.90;;;;;;6214237;23;20020;-79
2022/04/02 01:00:03;;;;;;;2.55;1.55;;;1.40;99.90;;;;;;6214374;23;20465;-79
2022/04/02 01:02:28;;;;;;;4.47;2.03;;;1.40;99.90;;;;;;6214409;23;20087;-79
2022/04/02 01:04:56;;;;;;;3.22;1.70;;;1.40;99.90;;;;;;6189392;23;20043;-79
2022/04/02 01:07:22;;;;;;;3.35;1.45;;;1.40;99.90;;;;;;6189297;23;20043;-79
2022/04/02 01:09:48;;;;;;;7.05;1.80;;;1.50;99.90;;;;;;6189097;23;20012;-79
2022/04/02 01:12:14;;;;;;;3.60;1.58;;;1.40;99.90;;;;;;6189348;23;20063;-79
2022/04/02 01:14:39;;;;;;;5.00;1.55;;;1.40;99.90;;;;;;6213970;23;20017;-79
2022/04/02 01:17:05;;;;;;;5.50;1.65;;;1.30;99.90;;;;;;6213688;23;20455;-78
2022/04/02 01:19:32;;;;;;;6.50;1.98;;;1.30;99.90;;;;;;6213637;23;20040;-79
2022/04/02 01:21:57;;;;;;;4.97;2.30;;;1.30;99.90;;;;;;6213814;23;20088;-79
2022/04/02 01:24:23;;;;;;;4.63;1.98;;;1.30;99.90;;;;;;6213745;23;20055;-79
2022/04/02 01:26:49;;;;;;;2.45;1.80;;;1.30;99.90;;;;;;6213787;23;20012;-79
2022/04/02 01:29:14;;;;;;;4.97;2.00;;;1.20;99.90;;;;;;6213705;23;20009;-78
2022/04/02 01:31:46;;;;;;;5.10;2.10;;;1.20;99.90;;;;;;6214907;23;20139;-79
2022/04/02 01:34:11;;;;;;;2.90;1.60;;;1.20;99.90;;;;;;6213616;23;20019;-78
2022/04/02 01:36:37;;;;;;;4.32;1.60;;;1.20;99.90;;;;;;6213552;23;20083;-79
2022/04/02 01:39:03;;;;;;;2.67;1.50;;;1.20;99.90;;;;;;6188432;23;20020;-79
2022/04/02 01:41:29;;;;;;;5.72;1.80;;;1.20;99.90;;;;;;6213472;23;20468;-79
2022/04/02 01:43:54;;;;;;;1.98;1.23;;;1.10;99.90;;;;;;6213428;23;20051;-78
2022/04/02 01:46:20;;;;;;;3.67;1.92;;;1.10;99.90;;;;;;6213247;23;20106;-78
2022/04/02 01:48:45;;;;;;;5.75;2.08;;;1.10;99.90;;;;;;6213360;23;20082;-78
2022/04/02 01:51:11;;;;;;;3.33;1.70;;;1.10;99.90;;;;;;6213340;23;20022;-79
2022/04/02 01:53:37;;;;;;;7.80;1.60;;;1.10;99.90;;;;;;6188375;23;20015;-78
2022/04/02 01:56:03;;;;;;;5.15;1.77;;;1.10;99.90;;;;;;6213375;23;20008;-79
2022/04/02 01:58:29;;;;;;;5.38;2.22;;;1.10;99.90;;;;;;6213298;23;20047;-79
2022/04/02 02:00:54;;;;;;;3.40;1.90;;;1.10;99.90;;;;;;6213034;23;20013;-79
2022/04/02 02:03:20;;;;;;;4.32;1.60;;;1.00;99.90;;;;;;6214842;23;20167;-79
2022/04/02 02:05:45;;;;;;;5.95;2.25;;;1.00;99.90;;;;;;6213315;23;20458;-78
2022/04/02 02:08:11;;;;;;;3.92;1.80;;;1.00;99.90;;;;;;6214597;23;20520;-78
2022/04/02 02:10:37;;;;;;;3.75;1.60;;;1.00;99.90;;;;;;6213004;23;20040;-79
2022/04/02 02:13:03;;;;;;;1.85;1.10;;;1.00;99.90;;;;;;6213115;23;20023;-79
2022/04/02 02:15:28;;;;;;;6.18;1.67;;;1.00;99.90;;;;;;6188108;23;20100;-78
2022/04/02 02:17:54;;;;;;;4.63;1.90;;;1.00;99.90;;;;;;6213375;23;20044;-79
2022/04/02 02:20:20;;;;;;;4.90;1.83;;;1.00;99.90;;;;;;6212795;23;20016;-79
2022/04/02 02:22:47;;;;;;;5.03;1.70;;;1.00;99.90;;;;;;6213465;23;20441;-79
2022/04/02 02:25:14;;;;;;;2.10;1.60;;;0.90;99.90;;;;;;6213066;23;20031;-78
2022/04/02 02:27:42;;;;;;;3.90;2.33;;;0.90;99.90;;;;;;6213190;23;20027;-79
2022/04/02 02:30:10;;;;;;;5.28;1.90;;;0.90;99.90;;;;;;6212728;23;20019;-80
2022/04/02 02:32:39;;;;;;;3.28;1.70;;;0.90;99.90;;;;;;6213190;23;20377;-79
2022/04/02 02:38:09;;;;;;;5.10;2.22;;;0.90;99.90;;;;;;6212783;23;20071;-79
2022/04/02 02:40:37;;;;;;;8.38;2.33;;;0.90;99.90;;;;;;6212743;23;20008;-78
2022/04/02 02:43:03;;;;;;;4.13;2.03;;;0.90;99.90;;;;;;6212844;23;20017;-78
2022/04/02 02:45:31;;;;;;;2.25;1.55;;;0.90;99.90;;;;;;6212875;23;20108;-79
2022/04/02 02:47:57;;;;;;;4.28;2.05;;;0.80;99.90;;;;;;6213015;23;20021;-79
2022/04/02 02:50:23;;;;;;;3.47;1.75;;;0.90;99.90;;;;;;6212707;23;20352;-79
2022/04/02 02:52:49;;;;;;;6.00;2.42;;;0.90;99.90;;;;;;6212740;23;20020;-79
2022/04/02 02:55:15;;;;;;;4.85;2.05;;;0.80;99.90;;;;;;6212605;23;20092;-79
2022/04/02 02:57:42;;;;;;;3.17;1.67;;;0.80;99.90;;;;;;6187761;23;20016;-79
2022/04/02 03:00:09;;;;;;;8.52;2.70;;;0.80;99.90;;;;;;6212699;23;20442;-78
2022/04/02 03:02:37;;;;;;;5.97;1.98;;;0.80;99.90;;;;;;6212410;23;20224;-79
2022/04/02 03:05:06;;;;;;;4.95;1.73;;;0.80;99.90;;;;;;6187778;23;20008;-79
2022/04/02 03:07:48;;;;;;;4.10;1.95;;;0.80;99.90;;;;;;6212664;23;20016;-79
2022/04/02 03:10:14;;;;;;;;;;;0.80;99.90;;;;;;6214551;23;20446;-79
2022/04/02 03:12:40;;;;;;;2.35;1.63;;;0.70;99.90;;;;;;6212829;23;19919;-79
2022/04/02 03:15:05;;;;;;;4.15;2.22;;;0.70;99.90;;;;;;6226092;23;20016;-78
2022/04/02 03:17:31;;;;;;;3.42;2.05;;;0.70;99.90;;;;;;6229998;23;20023;-79
2022/04/02 03:19:57;;;;;;;5.25;1.85;;;0.70;99.90;;;;;;6212534;23;20084;-80
2022/04/02 03:22:23;;;;;;;5.38;2.17;;;0.70;99.90;;;;;;6212678;23;20335;-79
2022/04/02 03:24:49;;;;;;;3.88;2.00;;;0.60;99.90;;;;;;6212553;23;20016;-79
2022/04/02 03:27:14;;;;;;;5.28;2.15;;;0.70;99.90;;;;;;6187251;23;20762;-79
2022/04/02 03:29:40;;;;;;;4.68;2.30;;;0.60;99.90;;;;;;6212231;23;20095;-79
2022/04/02 03:32:06;;;;;;;3.95;1.95;;;0.60;99.90;;;;;;6212564;23;20025;-79
2022/04/02 03:34:32;;;;;;;2.38;1.70;;;0.60;99.90;;;;;;6212553;23;20012;-79
2022/04/02 03:36:57;;;;;;;5.07;2.05;;;0.50;99.90;;;;;;6212241;23;20066;-79
2022/04/02 03:39:23;;;;;;;3.05;1.40;;;0.50;99.90;;;;;;6212286;23;20005;-78
2022/04/02 03:41:49;;;;;;;4.28;1.95;;;0.50;99.90;;;;;;6212117;23;20331;-79
2022/04/02 03:44:15;;;;;;;6.07;2.42;;;0.50;99.90;;;;;;6212236;23;20048;-79
2022/04/02 03:49:25;;;;;;;3.92;2.30;;;0.50;99.90;;;;;;6212422;23;20016;-78
2022/04/02 03:51:52;;;;;;;4.70;2.15;;;0.50;99.90;;;;;;6211997;23;20523;-78
2022/04/02 03:54:18;;;;;;;2.90;1.98;;;0.50;99.90;;;;;;6212167;23;20020;-78
2022/04/02 03:56:43;;;;;;;2.55;1.50;;;0.50;99.90;;;;;;6212182;23;20067;-78
2022/04/02 03:59:11;;;;;;;4.97;1.90;;;0.60;99.90;;;;;;6212203;23;20023;-79
2022/04/02 04:01:37;;;;;;;7.72;2.00;;;0.40;99.90;;;;;;6212061;23;20040;-79
2022/04/02 04:04:04;;;;;;;3.05;1.85;;;0.50;99.90;;;;;;6210818;23;20465;-78
2022/04/02 04:06:29;;;;;;;3.83;2.15;;;0.50;99.90;;;;;;6210780;23;20013;-78
2022/04/02 04:08:56;;;;;;;6.03;1.50;;;0.50;99.90;;;;;;6211157;23;20449;-78
2022/04/02 04:11:23;;;;;;;5.53;1.85;;;0.50;99.90;;;;;;6210689;23;20110;-78
2022/04/02 04:13:49;;;;;;;5.75;2.55;;;0.50;99.90;;;;;;6210264;23;20016;-79
2022/04/02 04:16:14;;;;;;;4.78;1.95;;;0.50;99.90;;;;;;6210894;23;20023;-78
2022/04/02 04:18:40;;;;;;;5.53;2.28;;;0.50;99.90;;;;;;6210802;23;20496;-79
2022/04/02 04:21:05;;;;;;;3.28;2.13;;;0.50;99.90;;;;;;6210698;23;20525;-79
2022/04/02 04:23:31;;;;;;;4.25;2.13;;;0.50;99.90;;;;;;6211012;23;20446;-79
2022/04/02 04:25:57;;;;;;;5.47;1.98;;;0.50;99.90;;;;;;6210915;23;20020;-79
2022/04/02 04:28:23;;;;;;;5.22;2.33;;;0.40;99.90;;;;;;6210917;23;20016;-79
2022/04/02 04:30:48;;;;;;;5.68;2.20;;;0.40;99.90;;;;;;6210690;23;20023;-78
2022/04/02 04:33:14;;;;;;;4.05;2.25;;;0.40;99.90;;;;;;6211052;23;20023;-79
2022/04/02 04:35:40;;;;;;;5.53;2.20;;;0.40;99.90;;;;;;6210586;23;20012;-79
2022/04/02 04:38:06;;;;;;;5.18;2.03;;;0.40;99.90;;;;;;6210861;23;20017;-79
2022/04/02 04:40:32;;;;;;;6.45;1.80;;;0.40;99.90;;;;;;6210613;23;20016;-79
2022/04/02 04:42:58;;;;;;;2.58;1.92;;;0.40;99.90;;;;;;6211245;23;20017;-79
2022/04/02 04:45:23;;;;;;;5.82;2.13;;;0.40;99.90;;;;;;6210650;23;20023;-79
2022/04/02 04:47:49;;;;;;;6.13;2.72;;;0.40;99.90;;;;;;6210891;23;20023;-78
2022/04/02 04:50:14;;;;;;;3.80;1.60;;;0.40;99.90;;;;;;6210237;23;20725;-79
2022/04/02 04:52:40;;;;;;;10.57;2.53;;;0.30;99.90;;;;;;6210826;23;20021;-80
2022/04/02 04:55:06;;;;;;;4.38;2.00;;;0.40;99.90;;;;;;6210814;23;20031;-79
2022/04/02 04:57:32;;;;;;;6.50;2.08;;;0.30;99.90;;;;;;6210329;23;20013;-79
2022/04/02 04:59:57;;;;;;;4.80;2.55;;;0.30;99.90;;;;;;6210305;23;20016;-79
2022/04/02 05:02:23;;;;;;;6.05;2.17;;;0.30;99.90;;;;;;6167630;23;1005090;-79
2022/04/02 05:04:49;;;;;;;4.35;2.05;;;0.30;99.90;;;;;;6211804;23;20354;-79
2022/04/02 05:07:17;;;;;;;3.05;1.85;;;0.30;99.90;;;;;;6211869;23;20024;-79
2022/04/02 05:09:44;;;;;;;4.80;2.25;;;0.30;99.90;;;;;;6211575;23;20021;-79
2022/04/02 05:12:11;;;;;;;5.93;2.20;;;0.30;99.90;;;;;;6213601;23;20012;-79
2022/04/02 05:14:37;;;;;;;6.22;2.25;;;0.30;99.90;;;;;;6211961;23;20047;-79
2022/04/02 05:17:02;;;;;;;5.72;2.38;;;0.30;99.90;;;;;;6211706;23;20016;-80
2022/04/02 05:19:28;;;;;;;2.88;1.65;;;0.30;99.90;;;;;;6211583;23;20087;-79
2022/04/02 05:21:53;;;;;;;3.67;2.10;;;0.30;99.90;;;;;;6211575;23;20012;-79
2022/04/02 05:24:19;;;;;;;4.85;2.00;;;0.30;99.90;;;;;;6212307;23;20098;-79
2022/04/02 05:26:47;;;;;;;3.88;2.10;;;0.30;99.90;;;;;;6213690;23;20012;-79
2022/04/02 05:29:13;;;;;;;4.47;1.75;;;0.30;99.90;;;;;;6213708;23;20102;-79
2022/04/02 05:31:41;;;;;;;4.03;2.05;;;0.30;99.90;;;;;;6213223;23;20019;-79
2022/04/02 05:34:06;;;;;;;3.88;1.75;;;0.40;99.90;;;;;;6213708;23;20008;-79
2022/04/02 05:36:33;;;;;;;6.50;2.15;;;0.40;99.90;;;;;;6213683;23;20071;-79
2022/04/02 05:38:58;;;;;;;6.22;2.17;;;0.40;99.90;;;;;;6213778;23;20048;-79
2022/04/02 05:41:24;;;;;;;4.97;2.08;;;0.40;99.90;;;;;;6213141;23;20008;-79
2022/04/02 05:43:50;;;;;;;4.18;2.10;;;0.40;99.90;;;;;;6213569;23;20011;-79
2022/04/02 05:46:16;;;;;;;4.28;1.80;;;0.50;99.90;;;;;;6188559;23;20015;-79
2022/04/02 05:48:42;;;;;;;4.43;1.80;;;0.50;99.90;;;;;;6192032;23;20016;-79
2022/04/02 05:51:08;;;;;;;5.95;1.80;;;0.50;99.90;;;;;;6200888;23;20020;-78
2022/04/02 05:53:33;;;;;;;5.03;2.00;;;0.60;99.90;;;;;;6216551;23;20012;-79
2022/04/02 05:56:00;;;;;;;5.07;1.67;;;0.70;99.90;;;;;;6213608;23;20028;-79
2022/04/02 05:58:25;;;;;;;5.60;1.73;;;0.70;99.90;;;;;;6213059;23;20020;-80
2022/04/02 06:00:51;;;;;;;3.30;1.92;;;0.70;99.90;;;;;;6212873;23;20108;-79
2022/04/02 06:03:19;;;;;;;9.55;1.88;;;0.80;99.90;;;;;;6213431;23;20013;-79
2022/04/02 06:05:45;;;;;;;4.88;1.63;;;0.80;99.90;;;;;;6213622;23;20477;-79
2022/04/02 06:08:11;;;;;;;4.43;1.70;;;0.90;99.90;;;;;;6188813;23;20054;-79
2022/04/02 06:10:37;;;;;;;3.47;2.00;;;1.00;99.90;;;;;;6213536;23;20047;-79
2022/04/02 06:13:02;;;;;;;5.72;2.00;;;1.00;99.90;;;;;;6213773;23;20008;-80
2022/04/02 06:15:28;;;;;;;6.57;2.00;;;1.10;99.90;;;;;;6213430;23;20100;-80
2022/04/02 06:17:53;;;;;;;3.75;2.00;;;1.10;99.90;;;;;;6188518;23;20073;-79
2022/04/02 06:20:19;;;;;;;7.68;2.17;;;1.30;99.90;;;;;;6188368;23;20016;-79
2022/04/02 06:22:44;;;;;;;4.72;1.80;;;1.30;99.90;;;;;;6213363;23;20020;-80
2022/04/02 06:25:10;;;;;;;8.65;2.35;;;1.40;99.90;;;;;;6213373;23;20004;-80
2022/04/02 06:27:43;;;;;;;6.28;2.70;;;1.50;99.90;;;;;;6213384;23;20020;-79
2022/04/02 06:30:11;;;;;;;7.97;2.95;;;1.60;99.90;;;;;;6212162;23;20096;-79
2022/04/02 06:32:38;;;;;;;8.32;2.80;;;1.60;99.90;;;;;;6212401;23;20327;-79
2022/04/02 06:35:04;;;;;;;8.05;2.90;;;1.70;99.90;;;;;;6212603;23;20071;-78
2022/04/02 06:37:34;;;;;;;5.70;2.92;;;1.80;99.90;;;;;;6186592;23;20401;-78
2022/04/02 06:40:01;;;;;;;9.82;2.90;;;1.90;99.90;;;;;;6212238;23;20044;-78
2022/04/02 06:42:26;;;;;;;6.03;2.10;;;1.90;99.90;;;;;;6212634;23;20636;-78
2022/04/02 06:44:52;;;;;;;17.02;2.92;;;2.00;99.90;;;;;;6212093;23;20044;-78
2022/04/02 06:47:17;;;;;;;4.15;1.48;;;2.00;99.90;;;;;;6212297;23;20100;-78
2022/04/02 06:49:43;;;;;;;3.30;1.77;;;2.10;99.90;;;;;;6187235;23;20012;-78
2022/04/02 06:52:08;;;;;;;6.90;2.30;;;2.20;99.90;;;;;;6212262;23;20552;-78
2022/04/02 06:54:34;;;;;;;9.25;2.15;;;2.20;99.90;;;;;;6212175;23;20476;-78
2022/04/02 06:57:00;;;;;;;6.03;2.38;;;2.30;99.90;;;;;;6187053;23;20027;-78
2022/04/02 06:59:25;;;;;;;5.95;2.10;;;2.40;99.90;;;;;;6212109;23;20013;-78
2022/04/02 07:01:51;;;;;;;4.93;1.80;;;2.50;99.90;;;;;;6186654;23;20016;-78
2022/04/02 07:04:17;;;;;;;5.10;2.40;;;2.60;99.90;;;;;;6187095;23;20040;-78
2022/04/02 07:06:45;;;;;;;4.32;1.85;;;2.60;99.90;;;;;;6213620;23;20008;-78
2022/04/02 07:09:12;;;;;;;3.50;2.15;;;2.70;99.90;;;;;;6212315;23;20019;-78
2022/04/02 07:11:38;;;;;;;14.18;6.07;;;2.80;99.90;;;;;;6212094;23;20028;-78
2022/04/02 07:14:03;;;;;;;8.57;2.78;;;2.90;99.90;;;;;;6213532;23;20012;-78
2022/04/02 07:16:29;;;;;;;9.25;2.97;;;3.00;99.90;;;;;;6212028;23;20119;-78
2022/04/02 07:18:57;;;;;;;6.30;2.90;;;3.20;99.90;;;;;;6211815;23;20026;-78
2022/04/02 07:21:26;;;;;;;6.28;2.33;;;3.50;99.90;;;;;;6186456;23;20023;-78
2022/04/02 07:23:53;;;;;;;18.77;3.15;;;3.80;99.90;;;;;;6187303;23;20051;-78
2022/04/02 07:26:18;;;;;;;3.53;1.90;;;4.10;99.90;;;;;;6212332;23;20484;-79
2022/04/02 07:28:45;;;;;;;5.03;1.77;;;4.40;99.90;;;;;;6211870;23;20016;-78
2022/04/02 07:31:11;;;;;;;5.13;2.53;;;4.80;99.90;;;;;;6186806;23;20015;-79
2022/04/02 07:33:36;;;;;;;6.28;2.47;;;5.10;99.90;;;;;;6186783;23;20401;-79
2022/04/02 07:36:08;;;;;;;9.68;3.38;;;5.50;99.90;;;;;;6186683;23;20368;-79
2022/04/02 07:39:08;;;;;;;3.47;2.05;;;5.70;99.90;;;;;;6211204;23;20090;-79
2022/04/02 07:41:59;;;;;;;7.70;1.92;;;5.90;99.90;;;;;;6185497;23;20040;-79
2022/04/02 07:44:51;;;;;;;3.40;1.85;;;6.20;99.90;;;;;;6211585;23;20012;-79
2022/04/02 07:47:22;;;;;;;6.88;3.10;;;6.40;99.90;;;;;;6186630;23;20012;-79
2022/04/02 07:49:52;;;;;;;5.18;2.05;;;6.50;99.90;;;;;;6212758;23;20021;-79
2022/04/02 07:52:18;;;;;;;4.50;2.00;;;6.60;99.90;;;;;;6211576;23;20019;-79
2022/04/02 07:54:46;;;;;;;5.60;1.85;;;6.50;99.90;;;;;;6186685;23;20017;-79
2022/04/02 07:57:14;;;;;;;4.13;2.35;;;6.50;99.90;;;;;;6211455;23;20027;-78
2022/04/02 07:59:42;;;;;;;28.10;10.60;;;6.40;99.90;;;;;;6211562;23;20062;-80
2022/04/02 08:04:56;;;;;;;9.00;2.47;;;6.60;99.90;;;;;;6211794;23;20027;-78
2022/04/02 08:07:22;;;;;;;4.78;2.10;;;6.80;99.90;;;;;;6213770;23;20017;-78
2022/04/02 08:09:49;;;;;;;2.90;1.77;;;7.00;99.90;;;;;;6212129;23;20016;-80
2022/04/02 08:12:15;;;;;;;6.82;2.13;;;7.20;99.90;;;;;;6213961;23;20012;-80
2022/04/02 08:14:41;;;;;;;5.65;1.85;;;7.20;99.90;;;;;;6188345;23;20382;-80
2022/04/02 08:17:08;;;;;;;3.30;1.88;;;7.10;99.90;;;;;;6187882;23;20086;-79
2022/04/02 08:19:38;;;;;;;2.45;1.58;;;6.80;99.90;;;;;;6186904;23;20005;-79
2022/04/02 08:22:04;;;;;;;2.92;1.90;;;6.70;99.90;;;;;;6213014;23;20127;-75
2022/04/02 08:24:29;;;;;;;3.88;1.98;;;6.40;99.90;;;;;;6213412;23;20020;-79
2022/04/02 08:27:02;;;;;;;3.78;1.70;;;6.10;99.90;;;;;;6186676;23;20020;-78
2022/04/02 08:29:50;;;;;;;4.85;2.28;;;6.00;99.90;;;;;;6193431;23;20005;-79
2022/04/02 08:32:41;;;;;;;7.95;2.17;;;6.00;99.90;;;;;;6219170;23;20453;-77
2022/04/02 08:35:07;;;;;;;4.05;1.88;;;6.40;99.90;;;;;;6213442;23;20012;-78
2022/04/02 08:38:02;;;;;;;2.88;1.58;;;7.00;99.90;;;;;;6186456;23;20074;-79
2022/04/02 08:40:59;;;;;;;4.63;2.10;;;7.60;99.90;;;;;;6186128;23;20589;-79
2022/04/02 08:44:04;;;;;;;2.28;1.50;;;7.90;99.90;;;;;;6211685;23;20013;-79
2022/04/02 08:46:49;;;;;;;4.45;1.80;;;8.20;99.90;;;;;;6186275;23;20024;-78
2022/04/02 08:49:43;;;;;;;2.65;1.75;;;8.10;99.90;;;;;;6211450;23;20090;-79
2022/04/02 08:52:15;;;;;;;2.75;1.80;;;7.60;99.90;;;;;;6184272;23;20023;-79
2022/04/02 08:54:52;;;;;;;2.17;1.40;;;7.10;99.90;;;;;;6186073;23;20016;-79
2022/04/02 08:57:29;;;;;;;3.55;2.28;;;6.70;99.90;;;;;;6211571;23;20099;-79
2022/04/02 09:00:13;;;;;;;7.68;3.95;;;6.30;99.90;;;;;;6213551;23;20012;-79
2022/04/02 09:02:54;;;;;;;3.75;1.83;;;6.20;99.90;;;;;;6214729;22;20005;-78
2022/04/02 09:05:59;;;;;;;4.05;1.90;;;6.00;99.90;;;;;;6213264;23;20505;-78
2022/04/02 09:09:03;;;;;;;7.60;2.42;;;5.70;99.90;;;;;;6213411;23;20095;-78
2022/04/02 09:11:49;;;;;;;11.90;7.07;;;5.50;99.90;;;;;;6213277;23;20071;-78
2022/04/02 09:14:45;;;;;;;7.25;1.90;;;5.30;99.90;;;;;;6213518;23;20028;-79
2022/04/02 09:17:38;;;;;;;6.35;2.45;;;5.20;99.90;;;;;;6213284;23;20023;-78
2022/04/02 09:20:13;;;;;;;3.45;1.67;;;5.20;99.90;;;;;;6206179;23;20044;-79
2022/04/02 09:22:41;;;;;;;3.85;1.42;;;5.10;99.90;;;;;;6213381;23;20017;-78
2022/04/02 09:25:29;;;;;;;3.75;1.90;;;5.00;99.90;;;;;;6213053;23;20040;-78
2022/04/02 09:28:29;;;;;;;4.50;2.25;;;4.90;99.90;;;;;;6214768;23;20020;-78
2022/04/02 09:31:09;;;;;;;6.47;1.58;;;4.80;99.90;;;;;;6212697;23;20013;-72
2022/04/02 09:34:07;;;;;;;3.80;1.52;;;4.60;99.90;;;;;;6214748;23;20017;-73
2022/04/02 09:37:07;;;;;;;4.05;1.90;;;4.60;99.90;;;;;;6213006;23;20818;-72
2022/04/02 09:39:56;;;;;;;2.95;1.50;;;4.50;99.90;;;;;;6214638;23;20032;-73
2022/04/02 09:42:43;;;;;;;6.18;1.88;;;4.40;99.90;;;;;;6188081;23;20040;-73
2022/04/02 09:45:09;;;;;;;13.43;1.70;;;4.40;99.90;;;;;;6214647;23;20012;-73
2022/04/02 09:47:47;;;;;;;3.13;1.45;;;4.30;99.90;;;;;;6212780;23;20028;-72
2022/04/02 09:50:21;;;;;;;2.85;1.60;;;4.20;99.90;;;;;;6187569;23;20012;-72
2022/04/02 09:52:53;;;;;;;4.03;1.70;;;4.20;99.90;;;;;;6213220;23;20048;-72
2022/04/02 09:55:22;;;;;;;8.43;2.30;;;4.20;99.90;;;;;;6212840;23;20331;-73
2022/04/02 09:58:19;;;;;;;3.60;1.58;;;4.20;99.90;;;;;;6212545;23;20072;-72
2022/04/02 10:01:04;;;;;;;3.83;2.10;;;4.20;99.90;;;;;;6214033;23;20024;-73
2022/04/02 10:04:04;;;;;;;3.13;1.45;;;4.40;99.90;;;;;;6187736;23;20054;-73
2022/04/02 10:06:40;;;;;;;1.90;1.40;;;4.60;99.90;;;;;;6212676;23;20012;-72
2022/04/02 10:09:19;;;;;;;3.83;1.20;;;4.80;99.90;;;;;;6212768;23;20021;-72
2022/04/02 10:11:54;;;;;;;2.45;1.65;;;4.90;99.90;;;;;;6186756;23;20012;-72
2022/04/02 10:14:24;;;;;;;4.30;1.70;;;5.00;99.90;;;;;;6212984;23;20013;-73
2022/04/02 10:16:52;;;;;;;3.13;1.23;;;5.20;99.90;;;;;;6212567;23;20024;-72
2022/04/02 10:19:18;;;;;;;3.50;1.65;;;5.30;99.90;;;;;;6212005;23;20016;-75
2022/04/02 10:21:50;;;;;;;6.07;1.55;;;5.30;99.90;;;;;;6212199;23;20017;-79
2022/04/02 10:24:21;;;;;;;4.82;1.30;;;5.30;99.90;;;;;;6212659;23;20013;-79
2022/04/02 10:26:55;;;;;;;7.53;2.10;;;5.20;99.90;;;;;;6212383;23;20517;-79
2022/04/02 10:29:34;;;;;;;3.28;1.10;;;5.10;99.90;;;;;;6187389;23;20087;-78
2022/04/02 10:32:22;;;;;;;2.75;1.65;;;5.00;99.90;;;;;;6187613;23;20020;-78
2022/04/02 10:34:55;;;;;;;3.35;1.33;;;4.80;99.90;;;;;;6212966;23;20070;-78
2022/04/02 10:37:24;;;;;;;2.45;1.00;;;4.60;99.90;;;;;;6212529;23;20012;-78
2022/04/02 10:39:58;;;;;;;4.32;1.13;;;4.50;99.90;;;;;;6212036;23;20529;-78
2022/04/02 10:42:42;;;;;;;3.00;1.73;;;4.50;99.90;;;;;;6187195;23;20008;-78
2022/04/02 10:45:13;;;;;;;2.58;1.35;;;4.60;99.90;;;;;;6187307;23;20012;-78
2022/04/02 10:47:49;;;;;;;4.10;1.00;;;4.60;99.90;;;;;;6213012;23;20016;-79
2022/04/02 10:50:19;;;;;;;4.68;1.13;;;4.40;99.90;;;;;;6188462;23;20040;-79
2022/04/02 10:52:50;;;;;;;2.10;1.25;;;4.20;99.90;;;;;;6212384;23;20012;-79
2022/04/02 10:55:18;;;;;;;3.65;1.95;;;4.10;99.90;;;;;;6212326;23;20067;-79
2022/04/02 10:57:44;;;;;;;5.00;0.95;;;4.00;99.90;;;;;;6187068;23;20095;-78
2022/04/02 11:00:10;;;;;;;3.22;1.30;;;4.10;99.90;;;;;;6186814;23;20067;-80
2022/04/02 11:02:44;;;;;;;3.25;1.83;;;4.40;99.90;;;;;;6211944;23;20008;-78
2022/04/02 11:05:15;;;;;;;2.05;0.90;;;4.90;99.90;;;;;;6212321;23;20009;-78
2022/04/02 11:07:46;;;;;;;4.20;1.17;;;5.50;99.90;;;;;;6186940;23;20016;-79
2022/04/02 11:10:13;;;;;;;1.10;1.00;;;6.00;99.90;;;;;;6187067;23;20468;-78
2022/04/02 11:12:44;;;;;;;1.40;1.00;;;6.30;99.90;;;;;;6212039;23;20047;-78
2022/04/02 11:15:17;;;;;;;2.45;0.95;;;6.60;99.90;;;;;;6211920;23;20087;-78
2022/04/02 11:17:46;;;;;;;3.30;1.17;;;6.70;99.90;;;;;;6212417;23;20017;-77
2022/04/02 11:20:23;;;;;;;1.83;1.40;;;6.80;99.90;;;;;;6222459;23;20125;-78
2022/04/02 11:22:51;;;;;;;2.85;1.23;;;6.90;99.90;;;;;;6216735;23;20047;-78
2022/04/02 11:25:29;;;;;;;1.98;1.25;;;7.00;99.90;;;;;;6188967;23;20071;-78
2022/04/02 11:27:59;;;;;;;1.75;0.98;;;7.20;99.90;;;;;;6213973;23;20116;-78
2022/04/02 11:30:30;;;;;;;2.10;0.90;;;7.30;99.90;;;;;;6213557;23;20009;-78
2022/04/02 11:33:26;;;;;;;4.20;1.10;;;7.20;99.90;;;;;;6212346;23;20017;-78
2022/04/02 11:36:03;;;;;;;5.28;1.17;;;7.00;99.90;;;;;;6210549;23;20334;-78
2022/04/02 11:38:57;;;;;;;1.15;0.90;;;6.90;99.90;;;;;;6186723;23;20012;-78
2022/04/02 11:41:37;;;;;;;2.45;0.90;;;6.70;99.90;;;;;;6186447;23;20044;-79
2022/04/02 11:44:14;;;;;;;1.38;1.08;;;6.50;99.90;;;;;;6186747;23;20403;-78
2022/04/02 11:46:58;;;;;;;2.17;1.10;;;6.40;99.90;;;;;;6212237;23;20013;-79
2022/04/02 11:49:39;;;;;;;2.58;1.58;;;6.20;99.90;;;;;;6211533;23;20016;-78
2022/04/02 11:52:07;;;;;;;4.20;1.13;;;5.90;99.90;;;;;;6211700;23;20605;-78
2022/04/02 11:54:59;;;;;;;22.38;9.07;;;5.50;99.90;;;;;;6211727;23;20013;-78
2022/04/02 11:57:25;;;;;;;3.05;1.63;;;5.30;99.90;;;;;;6211768;23;20019;-78
2022/04/02 11:59:58;;;;;;;3.97;2.03;;;5.00;99.90;;;;;;6211483;23;20012;-78
2022/04/02 12:02:43;;;;;;;4.45;1.10;;;4.70;99.90;;;;;;6211771;23;20454;-79
2022/04/02 12:05:11;;;;;;;2.10;1.40;;;4.50;99.90;;;;;;6211456;23;20016;-78
2022/04/02 12:07:52;;;;;;;4.22;1.75;;;4.30;99.90;;;;;;6211671;23;20341;-79
2022/04/02 12:10:23;;;;;;;20.95;9.32;;;4.20;99.90;;;;;;6211314;23;20024;-79
2022/04/02 12:12:51;;;;;;;15.25;5.80;;;4.30;99.90;;;;;;6212280;23;20019;-78
2022/04/02 12:15:18;;;;;;;5.28;1.70;;;4.40;99.90;;;;;;6211969;23;20087;-78
2022/04/02 12:17:50;;;;;;;5.45;1.88;;;4.60;99.90;;;;;;6211620;23;20331;-78
2022/04/02 12:20:40;;;;;;;3.38;1.77;;;4.90;99.90;;;;;;6211371;23;20012;-78
2022/04/02 12:23:15;;;;;;;4.30;1.15;;;5.30;99.90;;;;;;6203748;23;20155;-79
2022/04/02 12:25:53;;;;;;;2.53;1.55;;;5.60;99.90;;;;;;6186480;23;20012;-79
2022/04/02 12:28:19;;;;;;;2.05;1.10;;;6.00;99.90;;;;;;6211642;23;20390;-79
2022/04/02 12:30:52;;;;;;;1.92;1.10;;;6.30;99.90;;;;;;6211845;23;20036;-80
2022/04/02 12:33:20;;;;;;;1.35;1.05;;;6.50;99.90;;;;;;6214379;23;20012;-80
2022/04/02 12:35:58;;;;;;;1.40;0.82;;;6.40;99.90;;;;;;6215208;23;20013;-80
2022/04/02 12:38:30;;;;;;;1.00;0.80;;;6.40;99.90;;;;;;6190409;23;20012;-80
2022/04/02 12:40:57;;;;;;;2.33;0.82;;;6.30;99.90;;;;;;6189955;23;20485;-80
2022/04/02 12:43:33;;;;;;;2.28;1.40;;;6.10;99.90;;;;;;6189924;23;20012;-80
2022/04/02 12:46:00;;;;;;;2.95;0.88;;;5.90;99.90;;;;;;6191228;23;20008;-80
2022/04/02 12:48:26;;;;;;;6.65;3.05;;;5.70;99.90;;;;;;6215855;23;20016;-81
2022/04/02 12:50:55;;;;;;;2.92;1.30;;;5.60;99.90;;;;;;6190753;23;20098;-80
2022/04/02 12:53:44;;;;;;;2.97;1.23;;;5.70;99.90;;;;;;6191616;23;20012;-79
2022/04/02 12:56:17;;;;;;;2.42;1.08;;;6.00;99.90;;;;;;6191792;23;20020;-81
2022/04/02 12:58:45;;;;;;;2.85;1.10;;;6.40;99.90;;;;;;6190476;23;20013;-80
2022/04/02 13:01:29;;;;;;;4.63;1.25;;;6.80;99.90;;;;;;6217785;23;20019;-80
2022/04/02 13:03:59;;;;;;;2.03;1.02;;;6.90;99.90;;;;;;6215341;23;20255;-80
2022/04/02 13:06:27;;;;;;;2.05;1.23;;;6.80;99.90;;;;;;6215082;23;20013;-80
2022/04/02 13:09:05;;;;;;;1.73;1.10;;;6.50;99.90;;;;;;6217898;23;20056;-80
2022/04/02 13:11:52;;;;;;;5.38;3.28;;;6.20;99.90;;;;;;6218628;23;20092;-80
2022/04/02 13:14:19;;;;;;;5.30;1.10;;;5.90;99.90;;;;;;6217075;23;20012;-80
2022/04/02 13:16:48;;;;;;;1.65;1.30;;;5.70;99.90;;;;;;6217763;23;20005;-80
2022/04/02 13:22:14;;;;;;;1.27;1.05;;;5.50;99.90;;;;;;6214714;23;20070;-79
2022/04/02 13:24:52;;;;;;;1.85;1.55;;;5.60;99.90;;;;;;6214818;23;20098;-79
2022/04/02 13:27:27;;;;;;;1.30;0.80;;;5.70;99.90;;;;;;6213940;23;20012;-79
2022/04/02 13:30:10;;;;;;;3.55;1.00;;;5.80;99.90;;;;;;6216084;23;20020;-80